createdAt,value
2022-12-03T00:00:10.443Z,999.23
2022-12-03T00:01:06.184Z,999.25
2022-12-03T00:02:04.216Z,999.21
2022-12-03T00:03:04.315Z,999.20
2022-12-03T00:04:04.208Z,999.22
2022-12-03T00:05:04.137Z,999.25
2022-12-03T00:06:04.118Z,999.19
2022-12-03T00:07:04.123Z,999.18
2022-12-03T00:08:04.177Z,999.22
2022-12-03T00:09:05.099Z,999.21
2022-12-03T00:10:04.085Z,999.21
2022-12-03T00:11:04.081Z,999.27
2022-12-03T00:12:04.088Z,999.25
2022-12-03T00:13:04.082Z,999.28
2022-12-03T00:14:04.044Z,999.28
2022-12-03T00:15:04.051Z,999.23
2022-12-03T00:16:04.073Z,999.23
2022-12-03T00:17:04.029Z,999.31
2022-12-03T00:18:04.027Z,999.28
2022-12-03T00:19:04.016Z,999.26
2022-12-03T00:20:04.011Z,999.25
2022-12-03T00:21:03.989Z,999.28
2022-12-03T00:22:03.982Z,999.23
2022-12-03T00:23:03.992Z,999.22
2022-12-03T00:24:03.965Z,999.27
2022-12-03T00:25:03.954Z,999.23
2022-12-03T00:26:03.944Z,999.23
2022-12-03T00:27:03.943Z,999.25
2022-12-03T00:28:03.962Z,999.30
2022-12-03T00:29:03.917Z,999.28
2022-12-03T00:30:03.925Z,999.21
2022-12-03T00:31:03.946Z,999.27
2022-12-03T00:32:03.890Z,999.26
2022-12-03T00:33:03.907Z,999.26
2022-12-03T00:34:03.888Z,999.30
2022-12-03T00:35:03.871Z,999.23
2022-12-03T00:36:03.850Z,999.24
2022-12-03T00:37:03.851Z,999.24
2022-12-03T00:38:03.860Z,999.22
2022-12-03T00:39:03.825Z,999.25
2022-12-03T00:40:03.860Z,999.29
2022-12-03T00:41:03.817Z,999.23
2022-12-03T00:42:03.792Z,999.26
2022-12-03T00:43:03.828Z,999.22
2022-12-03T00:44:03.783Z,999.25
2022-12-03T00:45:03.777Z,999.22
2022-12-03T00:46:03.842Z,999.24
2022-12-03T00:47:03.864Z,999.26
2022-12-03T00:48:03.743Z,999.26
2022-12-03T00:49:03.750Z,999.26
2022-12-03T00:50:03.722Z,999.24
2022-12-03T00:51:03.736Z,999.24
2022-12-03T00:52:03.712Z,999.21
2022-12-03T00:53:03.757Z,999.22
2022-12-03T00:54:03.704Z,999.20
2022-12-03T00:55:04.687Z,999.16
2022-12-03T00:56:03.678Z,999.18
2022-12-03T00:57:03.674Z,999.25
2022-12-03T00:58:03.649Z,999.20
2022-12-03T00:59:03.661Z,999.18
2022-12-03T01:00:03.654Z,999.15
2022-12-03T01:01:03.634Z,999.20
2022-12-03T01:02:03.693Z,999.14
2022-12-03T01:03:03.614Z,999.17
2022-12-03T01:04:03.658Z,999.10
2022-12-03T01:05:03.692Z,999.13
2022-12-03T01:06:03.576Z,999.17
2022-12-03T01:07:03.581Z,999.12
2022-12-03T01:08:03.695Z,999.17
2022-12-03T01:09:03.581Z,999.15
2022-12-03T01:10:03.539Z,999.20
2022-12-03T01:11:03.544Z,999.15
2022-12-03T01:12:03.537Z,999.14
2022-12-03T01:13:03.516Z,999.12
2022-12-03T01:14:03.540Z,999.12
2022-12-03T01:15:03.497Z,999.19
2022-12-03T01:16:03.585Z,999.12
2022-12-03T01:17:03.486Z,999.16
2022-12-03T01:18:03.466Z,999.18
2022-12-03T01:19:03.475Z,999.18
2022-12-03T01:20:03.470Z,999.20
2022-12-03T01:21:03.442Z,999.21
2022-12-03T01:22:03.436Z,999.23
2022-12-03T01:23:03.427Z,999.19
2022-12-03T01:24:03.427Z,999.22
2022-12-03T01:25:03.393Z,999.21
2022-12-03T01:26:03.386Z,999.20
2022-12-03T01:27:03.385Z,999.23
2022-12-03T01:28:03.363Z,999.21
2022-12-03T01:29:03.465Z,999.22
2022-12-03T01:30:03.353Z,999.19
2022-12-03T01:31:03.375Z,999.23
2022-12-03T01:32:03.329Z,999.30
2022-12-03T01:33:03.314Z,999.22
2022-12-03T01:34:03.326Z,999.21
2022-12-03T01:35:03.298Z,999.24
2022-12-03T01:36:03.285Z,999.21
2022-12-03T01:37:03.285Z,999.17
2022-12-03T01:38:03.271Z,999.14
2022-12-03T01:39:03.331Z,999.20
2022-12-03T01:40:03.281Z,999.23
2022-12-03T01:41:05.982Z,999.12
2022-12-03T01:42:05.233Z,999.17
2022-12-03T01:43:03.226Z,999.09
2022-12-03T01:44:03.233Z,999.10
2022-12-03T01:45:03.206Z,999.10
2022-12-03T01:46:03.230Z,999.11
2022-12-03T01:47:03.267Z,999.14
2022-12-03T01:48:03.174Z,999.19
2022-12-03T01:49:03.183Z,999.14
2022-12-03T01:50:03.161Z,999.09
2022-12-03T01:51:03.142Z,999.09
2022-12-03T01:52:03.140Z,999.07
2022-12-03T01:53:03.119Z,999.07
2022-12-03T01:54:03.152Z,999.09
2022-12-03T01:55:03.105Z,999.14
2022-12-03T01:56:03.108Z,999.15
2022-12-03T01:57:03.081Z,999.15
2022-12-03T01:58:04.078Z,999.13
2022-12-03T01:59:03.085Z,999.12
2022-12-03T02:00:03.069Z,999.05
2022-12-03T02:01:03.038Z,999.11
2022-12-03T02:02:03.094Z,999.15
2022-12-03T02:03:03.025Z,999.10
2022-12-03T02:04:03.098Z,999.14
2022-12-03T02:05:03.027Z,999.09
2022-12-03T02:06:02.997Z,999.08
2022-12-03T02:07:03.008Z,999.14
2022-12-03T02:08:03.031Z,999.11
2022-12-03T02:09:02.984Z,999.07
2022-12-03T02:10:02.961Z,999.08
2022-12-03T02:11:02.948Z,999.10
2022-12-03T02:12:02.943Z,999.05
2022-12-03T02:13:02.944Z,999.01
2022-12-03T02:14:02.946Z,999.03
2022-12-03T02:15:02.917Z,999.03
2022-12-03T02:16:02.927Z,999.03
2022-12-03T02:17:02.912Z,999.06
2022-12-03T02:18:02.887Z,999.07
2022-12-03T02:19:02.896Z,999.07
2022-12-03T02:20:02.864Z,999.12
2022-12-03T02:21:03.849Z,999.05
2022-12-03T02:22:02.855Z,999.12
2022-12-03T02:23:02.844Z,999.15
2022-12-03T02:24:02.847Z,999.12
2022-12-03T02:25:02.834Z,999.12
2022-12-03T02:26:02.805Z,999.09
2022-12-03T02:27:02.813Z,999.13
2022-12-03T02:28:02.817Z,999.13
2022-12-03T02:29:02.812Z,999.15
2022-12-03T02:30:02.777Z,999.10
2022-12-03T02:31:02.818Z,999.16
2022-12-03T02:32:02.760Z,999.12
2022-12-03T02:33:02.741Z,999.12
2022-12-03T02:34:02.747Z,999.12
2022-12-03T02:35:03.728Z,999.11
2022-12-03T02:36:04.048Z,999.17
2022-12-03T02:37:03.740Z,999.09
2022-12-03T02:38:02.703Z,999.13
2022-12-03T02:39:02.711Z,999.18
2022-12-03T02:40:02.687Z,999.16
2022-12-03T02:41:02.679Z,999.19
2022-12-03T02:42:02.716Z,999.19
2022-12-03T02:43:02.656Z,999.10
2022-12-03T02:44:02.676Z,999.11
2022-12-03T02:45:05.385Z,999.13
2022-12-03T02:46:03.634Z,999.09
2022-12-03T02:47:02.707Z,999.12
2022-12-03T02:48:02.617Z,999.09
2022-12-03T02:49:02.634Z,999.10
2022-12-03T02:50:02.586Z,999.15
2022-12-03T02:51:02.579Z,999.13
2022-12-03T02:52:02.588Z,999.15
2022-12-03T02:53:02.567Z,999.14
2022-12-03T02:54:02.574Z,999.19
2022-12-03T02:55:02.548Z,999.10
2022-12-03T02:56:02.541Z,999.13
2022-12-03T02:57:02.525Z,999.07
2022-12-03T02:58:02.522Z,999.11
2022-12-03T02:59:02.525Z,999.12
2022-12-03T03:00:02.495Z,999.11
2022-12-03T03:01:02.529Z,999.11
2022-12-03T03:02:02.524Z,999.01
2022-12-03T03:03:02.482Z,999.06
2022-12-03T03:04:02.479Z,999.03
2022-12-03T03:05:02.448Z,999.09
2022-12-03T03:08:09.124Z,999.08
2022-12-03T03:08:48.087Z,998.99
2022-12-03T03:09:48.059Z,999.00
2022-12-03T03:10:48.050Z,999.00
2022-12-03T03:11:48.039Z,998.98
2022-12-03T03:12:48.033Z,998.98
2022-12-03T03:13:48.035Z,998.98
2022-12-03T03:14:48.020Z,999.00
2022-12-03T03:15:48.025Z,998.92
2022-12-03T03:16:48.073Z,998.96
2022-12-03T03:17:47.982Z,999.00
2022-12-03T03:18:47.989Z,998.97
2022-12-03T03:19:49.096Z,998.94
2022-12-03T03:20:49.071Z,998.87
2022-12-03T03:21:49.060Z,998.93
2022-12-03T03:22:49.050Z,998.93
2022-12-03T03:23:49.064Z,998.92
2022-12-03T03:24:49.032Z,998.91
2022-12-03T03:25:49.024Z,998.89
2022-12-03T03:26:49.014Z,998.93
2022-12-03T03:27:49.006Z,998.93
2022-12-03T03:28:49.013Z,998.87
2022-12-03T03:29:48.984Z,998.92
2022-12-03T03:30:48.974Z,998.90
2022-12-03T03:31:49.049Z,998.81
2022-12-03T03:32:48.956Z,998.86
2022-12-03T03:33:48.970Z,998.86
2022-12-03T03:34:48.955Z,998.80
2022-12-03T03:35:48.929Z,998.81
2022-12-03T03:36:48.922Z,998.84
2022-12-03T03:37:48.912Z,998.81
2022-12-03T03:38:48.914Z,998.84
2022-12-03T03:39:48.887Z,998.80
2022-12-03T03:40:48.883Z,998.83
2022-12-03T03:41:48.882Z,998.84
2022-12-03T03:42:48.862Z,998.82
2022-12-03T03:44:20.773Z,998.77
2022-12-03T03:44:48.840Z,998.79
2022-12-03T03:45:48.850Z,998.77
2022-12-03T03:46:48.823Z,998.78
2022-12-03T03:47:48.807Z,998.76
2022-12-03T03:48:48.791Z,998.73
2022-12-03T03:49:49.806Z,998.73
2022-12-03T03:50:48.785Z,998.70
2022-12-03T03:51:48.783Z,998.77
2022-12-03T03:52:48.768Z,998.73
2022-12-03T03:53:48.755Z,998.73
2022-12-03T03:54:48.777Z,998.76
2022-12-03T03:55:48.725Z,998.76
2022-12-03T03:56:48.724Z,998.74
2022-12-03T03:57:48.711Z,998.83
2022-12-03T03:58:48.704Z,998.77
2022-12-03T03:59:48.700Z,998.75
2022-12-03T04:00:48.715Z,998.70
2022-12-03T04:01:48.746Z,998.76
2022-12-03T04:02:48.665Z,998.70
2022-12-03T04:03:48.698Z,998.73
2022-12-03T04:04:48.660Z,998.74
2022-12-03T04:05:48.636Z,998.73
2022-12-03T04:06:48.638Z,998.71
2022-12-03T04:07:48.649Z,998.68
2022-12-03T04:08:48.603Z,998.71
2022-12-03T04:09:48.613Z,998.69
2022-12-03T04:10:48.589Z,998.65
2022-12-03T04:11:48.577Z,998.64
2022-12-03T04:12:48.555Z,998.72
2022-12-03T04:13:48.550Z,998.66
2022-12-03T04:14:48.632Z,998.69
2022-12-03T04:15:48.534Z,998.63
2022-12-03T04:16:48.559Z,998.67
2022-12-03T04:17:48.515Z,998.67
2022-12-03T04:18:48.527Z,998.71
2022-12-03T04:19:48.525Z,998.67
2022-12-03T04:20:48.483Z,998.73
2022-12-03T04:21:48.475Z,998.61
2022-12-03T04:22:48.469Z,998.68
2022-12-03T04:23:48.466Z,998.60
2022-12-03T04:24:48.482Z,998.59
2022-12-03T04:25:48.444Z,998.58
2022-12-03T04:26:48.447Z,998.58
2022-12-03T04:27:48.424Z,998.64
2022-12-03T04:28:48.405Z,998.62
2022-12-03T04:29:48.410Z,998.64
2022-12-03T04:30:48.432Z,998.63
2022-12-03T04:31:48.380Z,998.59
2022-12-03T04:32:48.377Z,998.54
2022-12-03T04:33:48.360Z,998.57
2022-12-03T04:34:48.371Z,998.60
2022-12-03T04:35:48.402Z,998.58
2022-12-03T04:36:49.333Z,998.58
2022-12-03T04:37:48.317Z,998.61
2022-12-03T04:38:48.308Z,998.64
2022-12-03T04:39:48.311Z,998.62
2022-12-03T04:40:48.283Z,998.62
2022-12-03T04:41:48.276Z,998.59
2022-12-03T04:42:48.263Z,998.60
2022-12-03T04:43:48.263Z,998.66
2022-12-03T04:44:48.264Z,998.64
2022-12-03T04:45:48.357Z,998.59
2022-12-03T04:46:48.268Z,998.58
2022-12-03T04:47:48.216Z,998.56
2022-12-03T04:48:48.198Z,998.61
2022-12-03T04:49:48.207Z,998.52
2022-12-03T04:50:48.189Z,998.53
2022-12-03T04:51:48.183Z,998.56
2022-12-03T04:52:48.188Z,998.63
2022-12-03T04:53:48.157Z,998.63
2022-12-03T04:54:48.211Z,998.59
2022-12-03T04:55:48.145Z,998.61
2022-12-03T04:56:48.120Z,998.56
2022-12-03T04:57:48.119Z,998.56
2022-12-03T04:58:48.116Z,998.60
2022-12-03T04:59:48.135Z,998.60
2022-12-03T05:00:48.091Z,998.64
2022-12-03T05:01:48.143Z,998.54
2022-12-03T05:02:48.133Z,998.56
2022-12-03T05:03:48.064Z,998.57
2022-12-03T05:04:48.054Z,998.64
2022-12-03T05:05:48.056Z,998.57
2022-12-03T05:06:48.064Z,998.59
2022-12-03T05:07:48.119Z,998.61
2022-12-03T05:08:48.019Z,998.62
2022-12-03T05:09:48.038Z,998.57
2022-12-03T05:10:48.008Z,998.65
2022-12-03T05:11:47.998Z,998.72
2022-12-03T05:12:47.984Z,998.63
2022-12-03T05:13:47.979Z,998.62
2022-12-03T05:14:47.985Z,998.61
2022-12-03T05:15:47.957Z,998.62
2022-12-03T05:16:48.024Z,998.59
2022-12-03T05:17:47.934Z,998.67
2022-12-03T05:18:47.928Z,998.62
2022-12-03T05:19:47.957Z,998.62
2022-12-03T05:20:53.262Z,998.60
2022-12-03T05:21:48.903Z,998.57
2022-12-03T05:22:47.909Z,998.60
2022-12-03T05:23:47.905Z,998.55
2022-12-03T05:24:47.877Z,998.53
2022-12-03T05:25:47.860Z,998.58
2022-12-03T05:26:47.847Z,998.57
2022-12-03T05:27:47.849Z,998.53
2022-12-03T05:28:47.828Z,998.62
2022-12-03T05:29:47.863Z,998.59
2022-12-03T05:30:47.928Z,998.59
2022-12-03T05:31:47.801Z,998.62
2022-12-03T05:32:47.789Z,998.58
2022-12-03T05:33:47.784Z,998.62
2022-12-03T05:34:47.820Z,998.61
2022-12-03T05:35:47.767Z,998.62
2022-12-03T05:36:47.756Z,998.60
2022-12-03T05:37:47.745Z,998.64
2022-12-03T05:38:47.737Z,998.59
2022-12-03T05:39:47.762Z,998.53
2022-12-03T05:40:47.713Z,998.56
2022-12-03T05:41:47.710Z,998.53
2022-12-03T05:42:47.719Z,998.58
2022-12-03T05:43:47.690Z,998.55
2022-12-03T05:44:47.706Z,998.54
2022-12-03T05:45:47.708Z,998.57
2022-12-03T05:46:47.666Z,998.54
2022-12-03T05:47:47.670Z,998.56
2022-12-03T05:48:47.638Z,998.62
2022-12-03T05:49:47.628Z,998.59
2022-12-03T05:50:48.639Z,998.57
2022-12-03T05:51:47.612Z,998.60
2022-12-03T05:52:47.606Z,998.59
2022-12-03T05:53:47.603Z,998.53
2022-12-03T05:54:47.587Z,998.57
2022-12-03T05:55:47.604Z,998.55
2022-12-03T05:56:47.565Z,998.52
2022-12-03T05:57:48.564Z,998.51
2022-12-03T05:58:47.549Z,998.50
2022-12-03T05:59:47.544Z,998.53
2022-12-03T06:00:47.543Z,998.50
2022-12-03T06:01:47.518Z,998.48
2022-12-03T06:02:47.633Z,998.47
2022-12-03T06:03:47.665Z,998.49
2022-12-03T06:04:47.484Z,998.52
2022-12-03T06:05:47.498Z,998.48
2022-12-03T06:06:47.468Z,998.43
2022-12-03T06:07:47.557Z,998.42
2022-12-03T06:08:47.457Z,998.46
2022-12-03T06:09:47.442Z,998.38
2022-12-03T06:10:47.460Z,998.40
2022-12-03T06:11:47.486Z,998.44
2022-12-03T06:12:47.410Z,998.45
2022-12-03T06:13:47.402Z,998.46
2022-12-03T06:14:47.394Z,998.41
2022-12-03T06:15:47.417Z,998.47
2022-12-03T06:16:47.421Z,998.48
2022-12-03T06:17:47.375Z,998.40
2022-12-03T06:18:47.351Z,998.42
2022-12-03T06:19:47.348Z,998.39
2022-12-03T06:20:47.351Z,998.41
2022-12-03T06:21:47.329Z,998.35
2022-12-03T06:22:48.324Z,998.38
2022-12-03T06:23:47.344Z,998.41
2022-12-03T06:24:47.305Z,998.45
2022-12-03T06:25:47.317Z,998.42
2022-12-03T06:26:47.282Z,998.39
2022-12-03T06:27:47.272Z,998.44
2022-12-03T06:28:47.255Z,998.44
2022-12-03T06:29:47.249Z,998.44
2022-12-03T06:30:47.282Z,998.45
2022-12-03T06:31:47.273Z,998.46
2022-12-03T06:32:47.228Z,998.42
2022-12-03T06:33:47.217Z,998.41
2022-12-03T06:34:47.209Z,998.47
2022-12-03T06:35:47.217Z,998.46
2022-12-03T06:36:47.193Z,998.51
2022-12-03T06:37:47.180Z,998.48
2022-12-03T06:38:47.164Z,998.50
2022-12-03T06:39:47.167Z,998.51
2022-12-03T06:40:47.189Z,998.55
2022-12-03T06:41:47.138Z,998.49
2022-12-03T06:42:47.126Z,998.48
2022-12-03T06:43:47.121Z,998.50
2022-12-03T06:44:47.117Z,998.55
2022-12-03T06:45:48.029Z,998.52
2022-12-03T06:46:48.140Z,998.54
2022-12-03T06:47:47.079Z,998.53
2022-12-03T06:48:47.082Z,998.59
2022-12-03T06:49:47.072Z,998.55
2022-12-03T06:50:47.072Z,998.51
2022-12-03T06:51:47.028Z,998.53
2022-12-03T06:52:47.043Z,998.57
2022-12-03T06:53:47.026Z,998.55
2022-12-03T06:54:47.030Z,998.56
2022-12-03T06:55:47.028Z,998.59
2022-12-03T06:56:46.993Z,998.53
2022-12-03T06:57:46.989Z,998.56
2022-12-03T06:58:46.975Z,998.59
2022-12-03T06:59:46.968Z,998.56
2022-12-03T07:00:46.969Z,998.60
2022-12-03T07:01:48.009Z,998.55
2022-12-03T07:02:47.032Z,998.56
2022-12-03T07:03:46.931Z,998.51
2022-12-03T07:04:46.925Z,998.56
2022-12-03T07:05:46.933Z,998.54
2022-12-03T07:06:46.897Z,998.59
2022-12-03T07:07:46.909Z,998.53
2022-12-03T07:08:46.878Z,998.53
2022-12-03T07:09:46.871Z,998.58
2022-12-03T07:10:46.889Z,998.58
2022-12-03T07:11:46.844Z,998.56
2022-12-03T07:12:46.848Z,998.46
2022-12-03T07:13:46.835Z,998.54
2022-12-03T07:14:46.824Z,998.53
2022-12-03T07:15:46.936Z,998.54
2022-12-03T07:16:46.817Z,998.56
2022-12-03T07:17:46.799Z,998.50
2022-12-03T07:18:46.787Z,998.52
2022-12-03T07:19:46.780Z,998.53
2022-12-03T07:20:46.806Z,998.65
2022-12-03T07:21:46.763Z,998.62
2022-12-03T07:22:46.747Z,998.60
2022-12-03T07:23:46.738Z,998.59
2022-12-03T07:24:46.736Z,998.66
2022-12-03T07:25:46.743Z,998.61
2022-12-03T07:26:46.711Z,998.58
2022-12-03T07:27:46.706Z,998.59
2022-12-03T07:28:46.701Z,998.57
2022-12-03T07:29:46.690Z,998.48
2022-12-03T07:30:46.695Z,998.58
2022-12-03T07:31:46.714Z,998.48
2022-12-03T07:32:46.654Z,998.58
2022-12-03T07:33:46.647Z,998.52
2022-12-03T07:34:46.641Z,998.52
2022-12-03T07:35:46.674Z,998.50
2022-12-03T07:36:46.622Z,998.53
2022-12-03T07:37:46.639Z,998.48
2022-12-03T07:38:46.602Z,998.52
2022-12-03T07:39:46.584Z,998.53
2022-12-03T07:40:46.615Z,998.50
2022-12-03T07:41:46.574Z,998.54
2022-12-03T07:42:46.567Z,998.48
2022-12-03T07:43:46.559Z,998.50
2022-12-03T07:44:46.550Z,998.47
2022-12-03T07:45:46.553Z,998.44
2022-12-03T07:46:46.607Z,998.53
2022-12-03T07:47:46.518Z,998.45
2022-12-03T07:48:46.514Z,998.51
2022-12-03T07:49:46.506Z,998.51
2022-12-03T07:50:46.512Z,998.48
2022-12-03T07:51:46.494Z,998.42
2022-12-03T07:52:46.474Z,998.45
2022-12-03T07:53:46.472Z,998.42
2022-12-03T07:54:46.464Z,998.45
2022-12-03T07:55:46.477Z,998.49
2022-12-03T07:56:46.444Z,998.50
2022-12-03T07:57:46.435Z,998.47
2022-12-03T07:58:46.425Z,998.48
2022-12-03T07:59:46.409Z,998.41
2022-12-03T08:00:46.443Z,998.49
2022-12-03T08:01:46.465Z,998.44
2022-12-03T08:02:46.461Z,998.41
2022-12-03T08:03:46.373Z,998.41
2022-12-03T08:04:46.372Z,998.44
2022-12-03T08:05:46.382Z,998.39
2022-12-03T08:06:46.351Z,998.41
2022-12-03T08:07:46.427Z,998.38
2022-12-03T08:08:46.332Z,998.42
2022-12-03T08:09:46.339Z,998.42
2022-12-03T08:10:46.354Z,998.42
2022-12-03T08:11:46.305Z,998.44
2022-12-03T08:12:46.308Z,998.39
2022-12-03T08:13:46.285Z,998.41
2022-12-03T08:14:46.280Z,998.34
2022-12-03T08:15:46.295Z,998.36
2022-12-03T08:16:46.319Z,998.40
2022-12-03T08:17:46.258Z,998.36
2022-12-03T08:18:46.244Z,998.38
2022-12-03T08:19:46.249Z,998.33
2022-12-03T08:20:46.253Z,998.38
2022-12-03T08:21:46.220Z,998.31
2022-12-03T08:22:46.217Z,998.34
2022-12-03T08:23:46.207Z,998.35
2022-12-03T08:24:46.203Z,998.32
2022-12-03T08:25:46.204Z,998.33
2022-12-03T08:26:46.178Z,998.36
2022-12-03T08:27:46.165Z,998.37
2022-12-03T08:28:46.149Z,998.36
2022-12-03T08:29:46.146Z,998.41
2022-12-03T08:30:46.145Z,998.44
2022-12-03T08:31:46.176Z,998.40
2022-12-03T08:32:46.119Z,998.37
2022-12-03T08:33:46.117Z,998.31
2022-12-03T08:34:46.107Z,998.31
2022-12-03T08:35:46.111Z,998.33
2022-12-03T08:36:46.083Z,998.31
2022-12-03T08:37:46.065Z,998.30
2022-12-03T08:38:46.069Z,998.25
2022-12-03T08:39:46.052Z,998.31
2022-12-03T08:40:46.069Z,998.30
2022-12-03T08:41:46.035Z,998.30
2022-12-03T08:42:46.026Z,998.27
2022-12-03T08:43:46.017Z,998.33
2022-12-03T08:44:46.049Z,998.29
2022-12-03T08:45:46.096Z,998.30
2022-12-03T08:46:45.991Z,998.31
2022-12-03T08:47:45.983Z,998.33
2022-12-03T08:48:49.045Z,998.31
2022-12-03T08:49:46.966Z,998.31
2022-12-03T08:50:45.974Z,998.32
2022-12-03T08:51:45.946Z,998.33
2022-12-03T08:52:45.932Z,998.35
2022-12-03T08:53:45.940Z,998.33
2022-12-03T08:54:45.905Z,998.36
2022-12-03T08:55:46.939Z,998.36
2022-12-03T08:56:45.892Z,998.36
2022-12-03T08:57:45.892Z,998.35
2022-12-03T08:58:45.890Z,998.31
2022-12-03T08:59:46.005Z,998.35
2022-12-03T09:00:45.890Z,998.36
2022-12-03T09:01:45.930Z,998.38
2022-12-03T09:02:45.870Z,998.34
2022-12-03T09:03:45.870Z,998.34
2022-12-03T09:04:45.844Z,998.34
2022-12-03T09:05:45.835Z,998.32
2022-12-03T09:06:45.816Z,998.34
2022-12-03T09:07:45.873Z,998.34
2022-12-03T09:08:45.786Z,998.36
2022-12-03T09:09:45.779Z,998.30
2022-12-03T09:10:45.788Z,998.32
2022-12-03T09:11:45.776Z,998.30
2022-12-03T09:12:45.753Z,998.23
2022-12-03T09:13:45.755Z,998.26
2022-12-03T09:14:45.734Z,998.27
2022-12-03T09:15:45.752Z,998.30
2022-12-03T09:16:45.851Z,998.29
2022-12-03T09:17:45.710Z,998.33
2022-12-03T09:18:45.708Z,998.30
2022-12-03T09:19:46.351Z,998.29
2022-12-03T09:20:46.708Z,998.28
2022-12-03T09:21:45.676Z,998.30
2022-12-03T09:22:45.671Z,998.30
2022-12-03T09:23:45.659Z,998.30
2022-12-03T09:24:45.649Z,998.35
2022-12-03T09:25:45.665Z,998.35
2022-12-03T09:26:45.642Z,998.34
2022-12-03T09:27:45.622Z,998.34
2022-12-03T09:28:45.616Z,998.27
2022-12-03T09:29:45.595Z,998.29
2022-12-03T09:30:45.594Z,998.30
2022-12-03T09:31:45.653Z,998.33
2022-12-03T09:32:45.571Z,998.31
2022-12-03T09:33:45.568Z,998.26
2022-12-03T09:34:45.557Z,998.34
2022-12-03T09:35:45.552Z,998.35
2022-12-03T09:36:45.562Z,998.32
2022-12-03T09:37:45.529Z,998.33
2022-12-03T09:38:47.873Z,998.31
2022-12-03T09:39:46.516Z,998.27
2022-12-03T09:40:45.504Z,998.34
2022-12-03T09:41:45.525Z,998.27
2022-12-03T09:42:45.489Z,998.22
2022-12-03T09:44:47.483Z,998.38
2022-12-03T09:46:20.360Z,998.30
2022-12-03T09:46:45.455Z,998.34
2022-12-03T09:47:45.432Z,998.32
2022-12-03T09:48:45.433Z,998.34
2022-12-03T09:49:45.429Z,998.32
2022-12-03T09:50:45.409Z,998.32
2022-12-03T09:51:45.414Z,998.35
2022-12-03T09:52:45.412Z,998.34
2022-12-03T09:53:45.410Z,998.32
2022-12-03T09:54:47.589Z,998.29
2022-12-03T09:55:46.366Z,998.24
2022-12-03T09:56:45.380Z,998.21
2022-12-03T09:57:45.356Z,998.26
2022-12-03T09:58:45.350Z,998.19
2022-12-03T09:59:45.327Z,998.23
2022-12-03T10:00:45.321Z,998.18
2022-12-03T10:01:45.400Z,998.20
2022-12-03T10:02:45.325Z,998.22
2022-12-03T10:03:45.281Z,998.16
2022-12-03T10:04:45.383Z,998.22
2022-12-03T10:05:48.210Z,998.18
2022-12-03T10:06:46.524Z,998.19
2022-12-03T10:07:45.374Z,998.13
2022-12-03T10:08:45.244Z,998.09
2022-12-03T10:09:45.235Z,998.12
2022-12-03T10:10:45.229Z,998.12
2022-12-03T10:11:45.230Z,998.13
2022-12-03T10:12:45.208Z,998.08
2022-12-03T10:13:45.193Z,998.11
2022-12-03T10:14:45.186Z,998.11
2022-12-03T10:15:45.175Z,998.12
2022-12-03T10:16:45.289Z,998.13
2022-12-03T10:17:45.161Z,998.12
2022-12-03T10:18:45.152Z,998.06
2022-12-03T10:19:45.146Z,998.07
2022-12-03T10:20:45.121Z,998.05
2022-12-03T10:21:46.151Z,998.10
2022-12-03T10:22:45.118Z,998.07
2022-12-03T10:23:46.473Z,998.07
2022-12-03T10:24:45.229Z,998.03
2022-12-03T10:25:45.094Z,998.07
2022-12-03T10:26:45.101Z,998.06
2022-12-03T10:27:45.062Z,998.03
2022-12-03T10:28:45.064Z,997.98
2022-12-03T10:29:45.061Z,998.00
2022-12-03T10:30:45.127Z,997.96
2022-12-03T10:31:45.058Z,997.92
2022-12-03T10:32:45.028Z,997.97
2022-12-03T10:33:45.026Z,998.00
2022-12-03T10:34:45.009Z,998.02
2022-12-03T10:35:44.994Z,998.01
2022-12-03T10:36:45.024Z,997.98
2022-12-03T10:37:44.992Z,997.98
2022-12-03T10:38:44.973Z,997.92
2022-12-03T10:39:44.974Z,997.97
2022-12-03T10:40:44.959Z,997.95
2022-12-03T10:41:44.961Z,997.96
2022-12-03T10:42:44.939Z,997.91
2022-12-03T10:43:44.917Z,997.91
2022-12-03T10:44:44.921Z,997.91
2022-12-03T10:45:44.960Z,997.93
2022-12-03T10:46:45.111Z,997.89
2022-12-03T10:47:44.964Z,997.91
2022-12-03T10:48:44.930Z,997.91
2022-12-03T10:49:44.880Z,997.87
2022-12-03T10:50:44.973Z,997.90
2022-12-03T10:51:44.879Z,997.87
2022-12-03T10:52:44.853Z,997.87
2022-12-03T10:53:44.844Z,997.84
2022-12-03T10:54:44.839Z,997.83
2022-12-03T10:55:44.823Z,997.79
2022-12-03T10:56:44.834Z,997.76
2022-12-03T10:57:46.119Z,997.78
2022-12-03T10:58:45.797Z,997.74
2022-12-03T10:59:44.803Z,997.78
2022-12-03T11:00:45.783Z,997.79
2022-12-03T11:01:44.913Z,997.75
2022-12-03T11:02:44.761Z,997.74
2022-12-03T11:03:44.810Z,997.68
2022-12-03T11:04:44.745Z,997.73
2022-12-03T11:05:44.729Z,997.65
2022-12-03T11:06:44.743Z,997.67
2022-12-03T11:07:44.779Z,997.61
2022-12-03T11:08:44.715Z,997.65
2022-12-03T11:09:44.693Z,997.63
2022-12-03T11:10:44.696Z,997.62
2022-12-03T11:11:44.741Z,997.60
2022-12-03T11:12:44.678Z,997.64
2022-12-03T11:13:44.687Z,997.62
2022-12-03T11:14:44.679Z,997.56
2022-12-03T11:15:44.726Z,997.54
2022-12-03T11:16:44.697Z,997.59
2022-12-03T11:17:44.676Z,997.58
2022-12-03T11:18:44.659Z,997.57
2022-12-03T11:19:44.672Z,997.55
2022-12-03T11:20:44.601Z,997.59
2022-12-03T11:21:44.678Z,997.50
2022-12-03T11:22:45.584Z,997.48
2022-12-03T11:23:44.577Z,997.46
2022-12-03T11:24:44.552Z,997.47
2022-12-03T11:25:44.560Z,997.45
2022-12-03T11:26:44.571Z,997.48
2022-12-03T11:27:44.534Z,997.48
2022-12-03T11:28:44.535Z,997.49
2022-12-03T11:29:44.530Z,997.48
2022-12-03T11:30:44.531Z,997.48
2022-12-03T11:31:44.715Z,997.48
2022-12-03T11:32:44.500Z,997.50
2022-12-03T11:33:44.499Z,997.48
2022-12-03T11:34:44.479Z,997.54
2022-12-03T11:35:44.470Z,997.52
2022-12-03T11:37:01.116Z,997.52
2022-12-03T11:37:46.459Z,997.49
2022-12-03T11:38:50.752Z,997.49
2022-12-03T11:39:45.439Z,997.48
2022-12-03T11:40:44.426Z,997.49
2022-12-03T11:41:44.442Z,997.43
2022-12-03T11:42:44.412Z,997.41
2022-12-03T11:43:44.415Z,997.43
2022-12-03T11:44:44.393Z,997.38
2022-12-03T11:45:44.389Z,997.45
2022-12-03T11:46:44.454Z,997.43
2022-12-03T11:47:44.362Z,997.38
2022-12-03T11:48:44.360Z,997.37
2022-12-03T11:49:44.356Z,997.45
2022-12-03T11:50:44.373Z,997.36
2022-12-03T11:51:44.366Z,997.42
2022-12-03T11:52:44.347Z,997.29
2022-12-03T11:53:44.314Z,997.37
2022-12-03T11:54:44.304Z,997.39
2022-12-03T11:55:44.301Z,997.43
2022-12-03T11:56:44.357Z,997.39
2022-12-03T11:57:44.288Z,997.37
2022-12-03T11:58:44.275Z,997.38
2022-12-03T11:59:44.253Z,997.34
2022-12-03T12:00:44.250Z,997.37
2022-12-03T12:01:44.267Z,997.37
2022-12-03T12:02:44.409Z,997.27
2022-12-03T12:03:44.341Z,997.30
2022-12-03T12:04:44.225Z,997.30
2022-12-03T12:05:44.206Z,997.25
2022-12-03T12:06:44.206Z,997.23
2022-12-03T12:07:44.240Z,997.21
2022-12-03T12:08:44.253Z,997.17
2022-12-03T12:09:44.177Z,997.11
2022-12-03T12:10:44.169Z,997.14
2022-12-03T12:11:44.146Z,997.10
2022-12-03T12:12:51.050Z,997.11
2022-12-03T12:13:46.140Z,997.09
2022-12-03T12:14:44.170Z,997.01
2022-12-03T12:15:44.216Z,997.07
2022-12-03T12:16:44.229Z,997.00
2022-12-03T12:17:44.121Z,997.00
2022-12-03T12:18:44.085Z,997.04
2022-12-03T12:19:46.470Z,997.04
2022-12-03T12:20:44.150Z,997.07
2022-12-03T12:21:44.116Z,997.07
2022-12-03T12:22:44.109Z,997.05
2022-12-03T12:23:45.130Z,997.04
2022-12-03T12:24:44.114Z,997.06
2022-12-03T12:25:44.063Z,997.04
2022-12-03T12:26:44.065Z,997.04
2022-12-03T12:27:44.071Z,996.97
2022-12-03T12:28:44.021Z,996.97
2022-12-03T12:29:44.022Z,996.95
2022-12-03T12:30:44.013Z,996.94